Time;durP1;ratioP1;P1;durP2;ratioP2;P2;SDS_P1;SDS_P2;PMS_P1;PMS_P2;Temp;Humidity;BMP_temperature;BMP_pressure;BME280_temperature;BME280_humidity;BME280_pressure;Samples;Min_cycle;Max_cycle;Signal;HPM_P1;HPM_P2
2022/06/03 00:02:54;;;;;;;2.00;1.83;;;20.30;40.50;;;;;;5057162;28;20458;-91
2022/06/03 00:05:51;;;;;;;2.10;1.90;;;20.30;40.30;;;;;;5052328;28;20447;-91
2022/06/03 00:08:55;;;;;;;2.50;2.30;;;20.30;40.70;;;;;;5046934;28;20471;-90
2022/06/03 00:11:41;;;;;;;2.10;2.00;;;20.20;40.90;;;;;;5068432;28;20491;-92
2022/06/03 00:14:49;;;;;;;2.20;1.83;;;20.20;40.90;;;;;;5055015;28;20803;-91
2022/06/03 00:17:35;;;;;;;2.20;2.07;;;20.10;40.90;;;;;;5064007;28;20444;-90
2022/06/03 00:20:13;;;;;;;2.47;2.27;;;20.10;41.00;;;;;;5057031;28;20458;-93
2022/06/03 00:22:58;;;;;;;3.00;1.80;;;20.10;41.20;;;;;;5055657;28;20542;-90
2022/06/03 00:25:48;;;;;;;1.80;1.70;;;20.00;40.90;;;;;;5051738;28;20527;-89
2022/06/03 00:28:30;;;;;;;2.63;2.43;;;20.00;41.20;;;;;;5063501;28;20470;-91
2022/06/03 00:31:17;;;;;;;6.00;1.90;;;20.00;40.90;;;;;;5070761;28;20456;-92
2022/06/03 00:34:17;;;;;;;1.97;1.87;;;19.90;40.20;;;;;;5067976;28;20450;-90
2022/06/03 00:36:55;;;;;;;1.97;1.77;;;19.80;40.80;;;;;;5070813;28;20436;-91
2022/06/03 00:39:43;;;;;;;2.07;1.97;;;19.80;41.00;;;;;;5069045;28;20439;-91
2022/06/03 00:42:43;;;;;;;3.57;1.60;;;19.70;40.70;;;;;;5087766;28;20451;-92
2022/06/03 00:45:26;;;;;;;2.27;2.10;;;19.50;41.60;;;;;;5052056;28;20431;-90
2022/06/03 00:48:08;;;;;;;2.43;2.03;;;19.60;41.50;;;;;;5045968;28;20834;-90
2022/06/03 00:51:12;;;;;;;1.77;1.67;;;19.50;41.10;;;;;;5054110;28;20515;-90
2022/06/03 00:54:02;;;;;;;3.77;1.90;;;19.20;41.30;;;;;;5069266;28;20990;-91
2022/06/03 00:56:51;;;;;;;2.00;1.70;;;19.20;41.40;;;;;;5092113;28;20464;-90
2022/06/03 00:59:57;;;;;;;2.30;2.10;;;19.30;41.80;;;;;;5056511;28;20966;-92
2022/06/03 01:02:42;;;;;;;2.30;2.00;;;19.30;41.60;;;;;;5062541;28;20542;-90
2022/06/03 01:05:21;;;;;;;2.33;2.03;;;19.40;41.70;;;;;;5056222;28;20469;-90
2022/06/03 01:08:03;;;;;;;2.07;1.93;;;19.40;41.00;;;;;;5073335;28;20448;-89
2022/06/03 01:10:44;;;;;;;1.87;1.77;;;19.40;41.20;;;;;;5076453;28;20451;-91
2022/06/03 01:13:25;;;;;;;1.70;1.60;;;19.30;40.90;;;;;;5037820;28;20443;-91
2022/06/03 01:15:59;;;;;;;2.83;2.50;;;19.30;40.90;;;;;;5046440;28;20448;-93
2022/06/03 01:18:41;;;;;;;2.40;1.90;;;19.40;41.10;;;;;;5051140;28;20534;-91
2022/06/03 01:21:19;;;;;;;2.40;2.20;;;19.40;41.20;;;;;;5076812;28;20476;-92
2022/06/03 01:24:02;;;;;;;2.50;2.10;;;19.30;41.00;;;;;;5042091;28;20945;-93
2022/06/03 01:26:46;;;;;;;1.93;1.83;;;19.30;41.30;;;;;;5074604;28;20455;-94
2022/06/03 01:29:31;;;;;;;4.50;1.80;;;19.30;41.30;;;;;;5077498;28;20473;-93
2022/06/03 01:32:31;;;;;;;1.70;1.60;;;19.30;41.40;;;;;;5095558;28;20445;-90
2022/06/03 01:35:22;;;;;;;3.10;2.03;;;19.20;41.20;;;;;;5035022;28;20447;-92
2022/06/03 01:37:55;;;;;;;1.70;1.60;;;19.10;41.80;;;;;;5093627;28;20459;-90
2022/06/03 01:40:43;;;;;;;2.00;1.90;;;19.10;42.00;;;;;;5089091;28;20467;-90
2022/06/03 01:43:48;;;;;;;2.20;2.00;;;19.10;42.00;;;;;;5092278;28;20454;-90
2022/06/03 01:46:29;;;;;;;1.97;1.87;;;19.10;42.00;;;;;;4982695;28;20451;-91
2022/06/03 01:49:22;;;;;;;1.90;1.70;;;19.10;42.10;;;;;;5058705;28;20475;-91
2022/06/03 01:52:12;;;;;;;2.30;2.20;;;19.00;42.20;;;;;;5072473;28;20453;-90
2022/06/03 01:55:02;;;;;;;3.20;1.87;;;19.00;42.40;;;;;;5074013;28;21013;-91
2022/06/03 01:58:07;;;;;;;1.80;1.70;;;19.00;42.50;;;;;;5043941;28;20522;-90
2022/06/03 02:00:37;;;;;;;1.90;1.80;;;18.90;42.30;;;;;;5063911;28;20470;-91
2022/06/03 02:03:36;;;;;;;1.90;1.80;;;18.90;42.10;;;;;;5043454;28;20452;-92
2022/06/03 02:06:41;;;;;;;3.10;2.07;;;18.80;42.50;;;;;;5029460;28;20800;-90
2022/06/03 02:09:41;;;;;;;1.97;1.83;;;18.80;42.90;;;;;;5045096;28;20464;-90
2022/06/03 02:12:51;;;;;;;1.87;1.73;;;18.80;42.70;;;;;;5046775;28;20455;-90
2022/06/03 02:15:39;;;;;;;1.70;1.60;;;18.80;42.60;;;;;;5002686;28;20452;-90
2022/06/03 02:18:46;;;;;;;2.40;2.10;;;18.80;42.80;;;;;;5072357;28;20876;-92
2022/06/03 02:21:55;;;;;;;2.03;1.77;;;18.70;43.00;;;;;;5022561;28;20471;-91
2022/06/03 02:24:48;;;;;;;2.33;2.10;;;18.70;42.50;;;;;;5019228;28;20539;-91
2022/06/03 02:27:40;;;;;;;2.30;1.97;;;18.70;42.60;;;;;;5055045;28;20456;-92
2022/06/03 02:30:50;;;;;;;2.27;1.60;;;18.60;42.20;;;;;;5053797;28;20553;-90
2022/06/03 02:33:44;;;;;;;2.97;2.10;;;18.40;42.50;;;;;;5053853;28;20939;-90
2022/06/03 02:36:45;;;;;;;2.20;2.00;;;18.40;43.80;;;;;;5055351;28;20811;-91
2022/06/03 02:39:30;;;;;;;2.10;1.90;;;18.40;43.80;;;;;;5055880;28;20713;-90
2022/06/03 02:42:18;;;;;;;2.40;2.30;;;18.50;43.90;;;;;;5073460;28;20947;-91
2022/06/03 02:45:08;;;;;;;2.20;2.10;;;18.50;43.60;;;;;;5049297;28;20455;-91
2022/06/03 02:48:02;;;;;;;3.60;2.70;;;18.60;43.50;;;;;;5055912;28;20440;-90
2022/06/03 02:50:48;;;;;;;3.60;2.40;;;18.60;43.90;;;;;;5074847;28;20467;-90
2022/06/03 02:53:51;;;;;;;2.03;1.93;;;18.60;43.90;;;;;;5073671;28;20446;-91
2022/06/03 02:56:37;;;;;;;2.30;2.10;;;18.60;44.00;;;;;;5037919;28;20447;-90
2022/06/03 02:59:40;;;;;;;2.57;2.37;;;18.50;44.00;;;;;;5072947;28;20451;-90
2022/06/03 03:02:41;;;;;;;2.43;2.20;;;18.50;44.20;;;;;;5036113;28;20461;-93
2022/06/03 03:05:27;;;;;;;2.23;2.13;;;18.50;44.40;;;;;;5067935;28;20459;-91
2022/06/03 03:08:37;;;;;;;2.47;2.33;;;18.50;44.80;;;;;;5043577;28;20474;-91
2022/06/03 03:11:27;;;;;;;3.03;2.70;;;18.40;45.00;;;;;;5052760;28;20474;-91
2022/06/03 03:14:20;;;;;;;2.33;2.13;;;18.40;44.90;;;;;;5060254;28;20966;-92
2022/06/03 03:17:34;;;;;;;2.47;2.27;;;18.40;45.20;;;;;;5055085;28;20560;-91
2022/06/03 03:20:26;;;;;;;2.73;1.90;;;18.30;45.50;;;;;;5039043;28;20461;-90
2022/06/03 03:23:35;;;;;;;2.53;2.33;;;18.30;46.10;;;;;;5070963;28;20457;-92
2022/06/03 03:26:15;;;;;;;2.33;2.13;;;18.30;46.20;;;;;;5086240;28;20460;-91
2022/06/03 03:29:04;;;;;;;6.10;2.50;;;18.20;46.20;;;;;;5090013;28;20447;-90
2022/06/03 03:31:56;;;;;;;2.70;2.20;;;18.20;46.10;;;;;;5033079;28;20471;-91
2022/06/03 03:35:12;;;;;;;2.17;2.07;;;18.20;45.80;;;;;;5040994;28;20470;-90
2022/06/03 03:38:01;;;;;;;1.93;1.83;;;18.20;45.90;;;;;;5057708;28;20964;-91
2022/06/03 03:40:54;;;;;;;2.57;2.37;;;18.10;45.80;;;;;;5059543;28;20503;-92
2022/06/03 03:44:04;;;;;;;3.10;2.30;;;18.20;46.00;;;;;;5092535;28;20466;-91
2022/06/03 03:47:06;;;;;;;2.40;2.20;;;18.10;46.10;;;;;;5075037;28;21019;-90
2022/06/03 03:50:11;;;;;;;3.27;2.60;;;18.10;46.20;;;;;;5037788;28;20459;-89
2022/06/03 03:53:11;;;;;;;2.10;2.00;;;18.10;46.40;;;;;;5055812;28;20487;-93
2022/06/03 03:55:59;;;;;;;2.80;2.60;;;18.10;46.10;;;;;;5054678;28;20450;-92
2022/06/03 03:58:43;;;;;;;2.80;2.60;;;18.00;46.20;;;;;;5087606;28;20977;-91
2022/06/03 04:01:41;;;;;;;2.40;2.17;;;18.00;46.50;;;;;;5049585;28;20464;-90
2022/06/03 04:04:35;;;;;;;3.13;2.83;;;18.00;46.60;;;;;;5052149;28;20477;-90
2022/06/03 04:07:24;;;;;;;2.57;2.37;;;18.00;46.90;;;;;;5074244;28;20481;-91
2022/06/03 04:10:10;;;;;;;2.87;2.67;;;18.00;47.00;;;;;;5087385;28;20477;-92
2022/06/03 04:13:14;;;;;;;2.63;2.43;;;18.10;47.20;;;;;;5090297;28;20973;-92
2022/06/03 04:16:17;;;;;;;2.53;2.33;;;18.10;47.40;;;;;;5079499;28;20905;-94
2022/06/03 04:19:13;;;;;;;3.07;2.87;;;18.10;47.60;;;;;;5051423;28;20555;-95
2022/06/03 04:22:21;;;;;;;2.30;2.20;;;18.10;47.90;;;;;;5046107;28;20567;-92
2022/06/03 04:25:20;;;;;;;2.77;2.57;;;18.10;48.00;;;;;;4958605;28;20543;-92
2022/06/03 04:28:24;;;;;;;2.90;2.10;;;18.10;48.10;;;;;;4963539;28;21058;-90
2022/06/03 04:31:41;;;;;;;2.27;2.07;;;18.20;48.30;;;;;;5025405;28;20848;-90
2022/06/03 04:34:49;;;;;;;2.70;2.50;;;18.20;48.40;;;;;;5061767;28;20438;-91
2022/06/03 04:38:06;;;;;;;3.27;2.60;;;18.20;49.00;;;;;;5035870;28;20951;-93
2022/06/03 04:41:20;;;;;;;2.30;2.10;;;18.20;49.70;;;;;;5087097;28;20985;-91
2022/06/03 04:44:23;;;;;;;2.80;2.50;;;18.30;48.80;;;;;;5069070;28;20478;-91
2022/06/03 04:47:26;;;;;;;3.50;2.80;;;18.40;48.70;;;;;;5059034;28;21242;-92
2022/06/03 04:50:41;;;;;;;4.73;3.27;;;18.40;49.00;;;;;;5030172;28;20528;-90
2022/06/03 04:53:53;;;;;;;2.60;2.40;;;18.40;49.00;;;;;;5050702;28;20505;-90
2022/06/03 04:57:16;;;;;;;2.80;2.60;;;18.50;49.00;;;;;;5043978;28;20515;-91
2022/06/03 05:00:13;;;;;;;3.20;2.90;;;18.50;49.10;;;;;;5055419;28;20472;-91
2022/06/03 05:03:23;;;;;;;3.77;3.47;;;18.50;49.30;;;;;;5034769;28;20436;-90
2022/06/03 05:06:36;;;;;;;4.43;2.43;;;18.60;49.60;;;;;;5020802;28;20448;-92
2022/06/03 05:09:36;;;;;;;3.07;2.80;;;18.70;50.10;;;;;;5063950;28;20488;-90
2022/06/03 05:12:26;;;;;;;3.30;3.00;;;18.80;49.20;;;;;;5045345;28;20454;-93
2022/06/03 05:15:18;;;;;;;2.50;2.30;;;18.90;49.00;;;;;;5065721;28;20440;-92
2022/06/03 05:18:28;;;;;;;3.47;2.60;;;18.90;49.00;;;;;;5064934;28;20518;-89
2022/06/03 05:21:34;;;;;;;3.60;3.33;;;19.00;49.10;;;;;;5073020;28;20467;-90
2022/06/03 05:24:40;;;;;;;6.67;2.67;;;19.00;48.70;;;;;;5002278;28;21016;-90
2022/06/03 05:27:48;;;;;;;6.67;3.03;;;19.00;48.70;;;;;;5049161;28;20451;-90
2022/06/03 05:30:50;;;;;;;3.40;2.40;;;19.00;48.20;;;;;;5042803;28;20489;-91
2022/06/03 05:33:43;;;;;;;3.80;2.50;;;19.20;47.80;;;;;;5034616;28;20482;-90
2022/06/03 05:36:56;;;;;;;3.20;2.90;;;19.30;47.30;;;;;;5073534;28;21018;-89
2022/06/03 05:39:51;;;;;;;2.40;2.20;;;19.20;47.10;;;;;;5045243;28;20451;-91
2022/06/03 05:42:46;;;;;;;2.53;2.33;;;19.30;46.40;;;;;;5045783;28;20471;-90
2022/06/03 05:45:58;;;;;;;2.37;2.17;;;19.40;45.90;;;;;;5052393;28;20448;-90
2022/06/03 05:48:39;;;;;;;4.43;2.80;;;19.40;46.00;;;;;;5038841;28;21127;-90
2022/06/03 05:51:14;;;;;;;4.20;2.80;;;19.60;47.00;;;;;;5085051;28;20479;-91
2022/06/03 05:53:53;;;;;;;2.40;2.20;;;19.80;45.60;;;;;;5050747;28;20537;-92
2022/06/03 05:56:36;;;;;;;5.93;2.13;;;19.80;45.50;;;;;;5065926;28;20882;-91
2022/06/03 05:59:12;;;;;;;6.40;2.37;;;19.90;45.90;;;;;;5072643;28;20509;-92
2022/06/03 06:01:49;;;;;;;3.27;2.60;;;20.00;45.90;;;;;;5066595;28;20460;-91
2022/06/03 06:04:22;;;;;;;3.17;2.20;;;20.20;46.40;;;;;;5086042;28;21192;-92
2022/06/03 06:07:03;;;;;;;3.53;2.40;;;20.40;45.80;;;;;;5058974;28;20515;-93
2022/06/03 06:09:48;;;;;;;4.27;2.60;;;20.50;45.90;;;;;;5089378;28;21182;-90
2022/06/03 06:12:38;;;;;;;2.37;2.17;;;20.60;45.80;;;;;;5070377;28;20538;-87
2022/06/03 06:15:35;;;;;;;2.40;2.20;;;20.60;44.50;;;;;;5041323;28;20436;-92
2022/06/03 06:18:15;;;;;;;3.13;2.77;;;20.60;45.00;;;;;;5050975;28;20452;-89
2022/06/03 06:20:54;;;;;;;2.50;2.30;;;20.70;45.50;;;;;;5065763;28;20513;-90
2022/06/03 06:23:36;;;;;;;2.30;2.10;;;20.90;46.10;;;;;;5065947;28;20439;-94
2022/06/03 06:26:36;;;;;;;2.67;2.47;;;21.10;44.70;;;;;;5069020;28;20455;-89
2022/06/03 06:29:37;;;;;;;3.23;1.93;;;20.90;43.40;;;;;;5048551;28;20452;-90
2022/06/03 06:32:44;;;;;;;2.60;2.17;;;20.80;43.90;;;;;;5051750;28;20443;-92
2022/06/03 06:35:51;;;;;;;2.33;2.13;;;20.80;44.10;;;;;;5049747;28;20474;-91
2022/06/03 06:38:26;;;;;;;2.23;2.03;;;20.90;44.00;;;;;;5051967;28;20451;-90
2022/06/03 06:41:07;;;;;;;2.83;2.23;;;21.20;44.00;;;;;;5065038;28;20814;-93
2022/06/03 06:43:46;;;;;;;2.77;1.93;;;21.30;43.20;;;;;;5067181;28;20446;-89
2022/06/03 06:46:27;;;;;;;2.30;2.10;;;21.60;43.70;;;;;;5034722;28;20455;-93
2022/06/03 06:49:06;;;;;;;2.10;2.00;;;21.80;43.00;;;;;;5068887;28;20479;-91
2022/06/03 06:51:59;;;;;;;4.53;2.13;;;21.70;42.10;;;;;;5036458;28;20994;-89
2022/06/03 06:54:34;;;;;;;2.50;1.90;;;21.90;43.30;;;;;;5064816;28;20459;-92
2022/06/03 06:57:07;;;;;;;2.30;2.20;;;22.10;42.70;;;;;;5065928;28;21036;-91
2022/06/03 06:59:39;;;;;;;2.97;1.67;;;22.30;42.60;;;;;;5084699;28;20458;-92
2022/06/03 07:02:14;;;;;;;3.30;2.07;;;22.40;42.30;;;;;;5047122;28;20454;-92
2022/06/03 07:04:52;;;;;;;2.27;2.00;;;22.50;41.80;;;;;;5068173;28;20459;-90
2022/06/03 07:07:26;;;;;;;2.20;2.00;;;22.40;41.70;;;;;;5050013;28;20463;-91
2022/06/03 07:09:59;;;;;;;2.97;2.73;;;22.40;42.00;;;;;;5069818;28;20477;-90
2022/06/03 07:12:31;;;;;;;6.10;2.80;;;22.40;42.00;;;;;;5067117;28;20451;-92
2022/06/03 07:15:02;;;;;;;2.97;2.77;;;22.60;42.00;;;;;;5034744;28;20439;-91
2022/06/03 07:20:51;;;;;;;3.77;2.00;;;22.80;39.80;;;;;;5056901;28;20465;-90
2022/06/03 07:23:27;;;;;;;3.00;2.80;;;22.90;40.70;;;;;;5050979;28;20455;-91
2022/06/03 07:26:00;;;;;;;2.87;2.20;;;22.90;40.60;;;;;;5070509;28;20464;-91
2022/06/03 07:28:33;;;;;;;2.50;2.30;;;23.00;40.10;;;;;;5052636;28;20488;-89
2022/06/03 07:31:11;;;;;;;2.87;2.50;;;23.20;40.70;;;;;;5082718;28;20468;-90
2022/06/03 07:33:58;;;;;;;1.80;1.70;;;23.30;39.70;;;;;;5033649;28;20962;-89
2022/06/03 07:36:36;;;;;;;3.27;2.17;;;23.40;39.20;;;;;;5069489;28;20456;-91
2022/06/03 07:39:33;;;;;;;3.13;2.33;;;23.50;38.60;;;;;;5057596;28;20444;-93
2022/06/03 07:42:06;;;;;;;3.10;2.10;;;23.40;39.00;;;;;;5078517;28;20535;-91
2022/06/03 07:44:42;;;;;;;2.23;2.03;;;23.60;39.10;;;;;;5090639;28;20447;-95
2022/06/03 07:47:11;;;;;;;2.60;2.40;;;23.70;39.50;;;;;;5073401;28;21168;-93
2022/06/03 07:49:40;;;;;;;2.53;2.33;;;23.90;39.10;;;;;;5060008;28;20458;-90
2022/06/03 07:52:12;;;;;;;3.37;2.13;;;24.10;38.40;;;;;;5043344;28;20980;-92
2022/06/03 07:54:44;;;;;;;2.90;2.70;;;24.30;39.00;;;;;;5088772;28;20448;-91
2022/06/03 07:57:19;;;;;;;5.00;2.60;;;24.20;38.60;;;;;;5076554;28;20460;-90
2022/06/03 07:59:46;;;;;;;3.20;2.90;;;24.10;38.60;;;;;;5090299;28;20462;-89
2022/06/03 08:02:18;;;;;;;5.03;2.50;;;24.10;38.30;;;;;;5071118;28;20472;-92
2022/06/03 08:04:49;;;;;;;2.20;2.10;;;24.30;38.00;;;;;;5091793;28;20479;-93
2022/06/03 08:13:08;;;;;;;2.80;2.60;;;24.80;38.50;;;;;;5072652;28;20789;-90
2022/06/03 08:15:38;;;;;;;5.33;2.87;;;24.90;38.10;;;;;;5066372;28;20534;-89
2022/06/03 08:18:07;;;;;;;3.30;3.10;;;25.00;39.10;;;;;;5073496;28;20447;-89
2022/06/03 08:20:48;;;;;;;3.00;2.80;;;25.20;39.10;;;;;;5095870;28;20867;-89
2022/06/03 08:23:17;;;;;;;2.53;2.33;;;25.30;38.10;;;;;;5076376;28;20523;-89
2022/06/03 08:25:47;;;;;;;2.77;2.57;;;25.40;38.20;;;;;;5070006;28;20500;-92
2022/06/03 08:28:18;;;;;;;5.93;2.57;;;25.80;38.50;;;;;;5036096;28;20818;-90
2022/06/03 08:30:48;;;;;;;3.40;2.73;;;25.90;37.20;;;;;;5033055;28;20498;-93
2022/06/03 08:33:19;;;;;;;3.77;2.90;;;26.00;36.30;;;;;;5058194;28;20447;-92
2022/06/03 08:35:49;;;;;;;3.10;2.60;;;26.20;36.60;;;;;;5055548;28;20451;-90
2022/06/03 08:38:20;;;;;;;3.83;2.30;;;26.10;36.50;;;;;;5040170;28;20543;-89
2022/06/03 08:40:59;;;;;;;3.50;2.63;;;26.10;38.00;;;;;;5070506;28;20466;-90
2022/06/03 08:43:33;;;;;;;3.40;3.20;;;26.20;37.50;;;;;;5053450;28;20799;-90
2022/06/03 08:46:07;;;;;;;3.00;2.70;;;26.00;36.80;;;;;;5037257;28;20563;-92
2022/06/03 08:48:47;;;;;;;3.57;3.37;;;25.90;37.00;;;;;;5073428;28;20447;-91
2022/06/03 08:51:23;;;;;;;5.30;2.43;;;26.10;37.80;;;;;;5053835;28;20472;-91
2022/06/03 08:54:12;;;;;;;4.10;3.00;;;26.40;37.50;;;;;;5058541;28;20497;-92
2022/06/03 08:56:44;;;;;;;3.73;2.93;;;26.70;36.90;;;;;;5085935;28;20497;-92
2022/06/03 08:59:16;;;;;;;3.40;3.10;;;26.70;36.10;;;;;;5045065;28;20798;-90
2022/06/03 09:01:51;;;;;;;8.60;3.13;;;26.70;37.20;;;;;;5089861;28;20487;-90
2022/06/03 09:04:25;;;;;;;4.13;3.10;;;26.80;36.20;;;;;;5055829;28;20498;-90
2022/06/03 09:07:04;;;;;;;2.93;2.73;;;27.00;37.00;;;;;;5073187;28;20438;-89
2022/06/03 09:09:37;;;;;;;3.13;2.93;;;27.40;36.20;;;;;;5041439;28;20951;-88
2022/06/03 09:12:12;;;;;;;4.07;2.70;;;27.60;35.70;;;;;;5066842;28;21021;-93
2022/06/03 09:14:42;;;;;;;3.13;2.73;;;27.60;35.50;;;;;;5077124;28;20478;-91
2022/06/03 09:17:34;;;;;;;6.23;2.90;;;27.80;35.40;;;;;;5092784;28;20451;-89
2022/06/03 09:20:05;;;;;;;3.00;2.80;;;28.00;34.90;;;;;;5073090;28;20503;-90
2022/06/03 09:22:34;;;;;;;3.83;3.53;;;27.90;34.90;;;;;;5091825;28;20438;-90
2022/06/03 09:25:05;;;;;;;3.00;2.80;;;27.80;36.00;;;;;;5052497;28;20471;-91
2022/06/03 09:27:33;;;;;;;3.70;2.80;;;28.00;36.10;;;;;;5075183;28;20509;-89
2022/06/03 09:30:03;;;;;;;4.00;3.57;;;28.10;36.40;;;;;;5071951;28;20463;-90
2022/06/03 09:32:38;;;;;;;2.83;2.63;;;28.20;35.70;;;;;;5072152;28;20477;-90
2022/06/03 09:35:10;;;;;;;3.40;3.10;;;28.20;36.70;;;;;;5059322;28;20449;-89
2022/06/03 09:37:43;;;;;;;3.70;3.40;;;28.20;35.50;;;;;;5074206;28;21043;-90
2022/06/03 09:40:18;;;;;;;3.50;3.20;;;28.60;35.00;;;;;;5090247;28;20939;-90
2022/06/03 09:43:00;;;;;;;6.27;3.27;;;28.80;34.50;;;;;;5090773;28;20471;-89
2022/06/03 09:45:28;;;;;;;5.10;3.10;;;28.90;34.80;;;;;;5090937;28;20451;-89
2022/06/03 09:47:56;;;;;;;4.27;2.80;;;29.00;35.30;;;;;;5094948;28;20446;-93
2022/06/03 09:50:25;;;;;;;2.93;2.73;;;29.40;35.20;;;;;;5063817;28;21339;-90
2022/06/03 09:53:01;;;;;;;3.87;3.20;;;29.80;33.40;;;;;;5071214;28;20466;-93
2022/06/03 09:55:32;;;;;;;3.27;3.00;;;29.80;34.10;;;;;;5064543;28;20444;-90
2022/06/03 09:58:01;;;;;;;5.20;3.00;;;29.90;33.40;;;;;;5088938;28;20861;-89
2022/06/03 10:00:35;;;;;;;4.80;3.13;;;30.10;33.30;;;;;;5092023;28;20983;-91
2022/06/03 10:03:04;;;;;;;3.53;3.13;;;30.60;34.10;;;;;;5074696;28;20967;-89
2022/06/03 10:05:31;;;;;;;3.50;3.20;;;30.60;32.70;;;;;;5075524;28;20439;-88
2022/06/03 10:08:03;;;;;;;3.70;3.40;;;30.60;33.20;;;;;;5055851;28;20432;-86
2022/06/03 10:13:15;;;;;;;3.00;2.80;;;30.50;32.50;;;;;;5062270;28;20638;-87
2022/06/03 10:15:53;;;;;;;3.10;2.90;;;30.40;33.60;;;;;;5080967;28;20429;-86
2022/06/03 10:18:30;;;;;;;3.77;3.57;;;30.20;33.20;;;;;;5092632;28;21228;-88
2022/06/03 10:20:59;;;;;;;4.37;4.07;;;30.50;33.50;;;;;;5052202;28;20472;-87
2022/06/03 10:23:33;;;;;;;4.60;3.50;;;30.80;33.80;;;;;;5071434;28;20451;-88
2022/06/03 10:26:01;;;;;;;3.63;3.13;;;31.00;32.80;;;;;;5078371;28;20985;-90
2022/06/03 10:28:34;;;;;;;3.90;3.40;;;31.00;33.10;;;;;;5039049;28;20984;-88
2022/06/03 10:31:06;;;;;;;3.53;3.23;;;31.30;32.80;;;;;;5065393;28;20472;-88
2022/06/03 10:33:34;;;;;;;3.70;3.30;;;31.60;33.10;;;;;;5070784;28;20440;-87
2022/06/03 10:36:03;;;;;;;4.00;3.70;;;31.70;31.90;;;;;;5052596;28;20448;-90
2022/06/03 10:38:34;;;;;;;3.70;3.40;;;31.70;32.20;;;;;;5055553;28;20454;-88
2022/06/03 10:41:05;;;;;;;4.00;3.70;;;31.50;32.10;;;;;;5055010;28;20520;-89
2022/06/03 10:43:36;;;;;;;4.53;3.43;;;31.40;32.00;;;;;;5066232;28;21133;-88
2022/06/03 10:46:12;;;;;;;4.97;4.53;;;31.60;32.30;;;;;;5063154;28;20495;-90
2022/06/03 10:48:40;;;;;;;3.63;3.30;;;31.80;32.30;;;;;;5070597;28;20455;-89
2022/06/03 10:51:17;;;;;;;4.07;3.33;;;32.10;32.70;;;;;;5051992;28;20464;-89
2022/06/03 11:02:29;;;;;;;3.33;3.13;;;32.20;32.30;;;;;;5061783;28;20440;-88
2022/06/03 11:05:11;;;;;;;3.70;3.40;;;32.30;31.80;;;;;;5056914;28;20513;-87
2022/06/03 11:07:38;;;;;;;3.90;3.60;;;32.10;31.50;;;;;;5071638;28;20456;-87
2022/06/03 11:10:10;;;;;;;5.00;3.43;;;32.20;31.90;;;;;;5070423;28;20468;-86
2022/06/03 11:12:37;;;;;;;3.90;3.50;;;32.20;31.50;;;;;;5086382;28;20460;-88
2022/06/03 11:15:25;;;;;;;4.17;2.90;;;31.90;32.40;;;;;;5088847;28;20968;-89
2022/06/03 11:17:52;;;;;;;3.53;3.23;;;31.90;32.80;;;;;;5039589;28;20455;-88
2022/06/03 11:20:33;;;;;;;3.53;3.30;;;32.20;32.80;;;;;;5070663;28;20836;-89
2022/06/03 11:23:02;;;;;;;3.60;3.30;;;32.30;32.80;;;;;;5052198;28;20440;-88
2022/06/03 11:25:32;;;;;;;3.53;3.23;;;31.80;32.10;;;;;;5056023;28;20447;-89
2022/06/03 11:28:02;;;;;;;3.60;3.40;;;31.60;32.50;;;;;;5041586;28;20443;-91
2022/06/03 11:30:37;;;;;;;4.17;3.87;;;31.60;32.90;;;;;;5055305;28;20479;-86
2022/06/03 11:33:10;;;;;;;3.77;3.47;;;31.40;32.90;;;;;;5068884;28;20459;-91
2022/06/03 11:35:41;;;;;;;3.20;3.00;;;31.60;33.30;;;;;;5083733;28;20455;-86
2022/06/03 11:38:11;;;;;;;4.10;3.73;;;32.00;33.00;;;;;;5069936;28;20882;-90
2022/06/03 11:40:44;;;;;;;3.57;3.27;;;32.40;32.10;;;;;;5073113;28;20562;-87
2022/06/03 11:43:17;;;;;;;3.40;3.10;;;32.20;31.90;;;;;;5050304;28;20490;-87
2022/06/03 11:45:51;;;;;;;3.43;3.17;;;32.60;32.20;;;;;;5070068;28;20447;-90
2022/06/03 11:48:25;;;;;;;4.60;3.47;;;33.10;31.30;;;;;;5069732;28;20455;-88
2022/06/03 11:50:53;;;;;;;3.27;2.90;;;33.50;31.20;;;;;;5053857;28;20478;-88
2022/06/03 11:53:25;;;;;;;3.60;3.40;;;33.50;30.50;;;;;;5070192;28;20475;-89
2022/06/03 11:55:55;;;;;;;3.83;3.00;;;33.30;31.00;;;;;;5052425;28;20435;-86
2022/06/03 11:58:29;;;;;;;4.33;3.53;;;33.50;31.40;;;;;;5088285;28;20462;-87
2022/06/03 12:01:02;;;;;;;4.67;3.37;;;33.60;30.70;;;;;;5089712;28;20473;-87
2022/06/03 12:03:37;;;;;;;3.23;3.03;;;33.90;31.40;;;;;;5052543;28;20536;-92
2022/06/03 12:06:09;;;;;;;3.17;2.97;;;33.80;30.00;;;;;;5068655;28;20938;-88
2022/06/03 12:08:50;;;;;;;2.87;2.57;;;33.90;31.10;;;;;;5054336;28;20452;-88
2022/06/03 12:14:29;;;;;;;3.20;3.00;;;34.30;29.10;;;;;;5067705;28;20542;-89
2022/06/03 12:17:00;;;;;;;3.20;3.00;;;34.20;29.80;;;;;;5051046;28;20951;-91
2022/06/03 12:19:42;;;;;;;5.80;2.83;;;34.20;28.70;;;;;;5046873;28;21979;-88
2022/06/03 12:22:35;;;;;;;4.63;3.60;;;34.50;29.80;;;;;;5064015;28;20547;-87
2022/06/03 12:25:04;;;;;;;4.30;3.20;;;34.50;28.60;;;;;;5047409;28;20568;-88
2022/06/03 12:27:36;;;;;;;4.83;2.70;;;34.10;30.10;;;;;;5046229;28;20448;-88
2022/06/03 12:30:33;;;;;;;6.97;3.20;;;34.00;28.90;;;;;;5054942;28;20460;-89
2022/06/03 12:33:03;;;;;;;4.80;3.00;;;34.00;29.50;;;;;;5065956;28;21153;-89
2022/06/03 12:36:05;;;;;;;3.63;3.33;;;34.10;29.90;;;;;;5085640;28;20435;-88
2022/06/03 12:38:41;;;;;;;3.20;3.00;;;33.90;29.40;;;;;;5069954;28;20941;-88
2022/06/03 12:41:08;;;;;;;5.70;3.47;;;34.20;29.60;;;;;;5081968;28;20572;-87
2022/06/03 12:43:59;;;;;;;3.10;2.90;;;34.10;29.40;;;;;;5087208;28;20526;-86
2022/06/03 12:46:39;;;;;;;3.10;2.93;;;34.10;29.90;;;;;;5089415;28;20438;-86
2022/06/03 12:49:18;;;;;;;6.43;3.00;;;34.00;29.60;;;;;;5090601;28;20459;-88
2022/06/03 12:52:01;;;;;;;3.20;3.00;;;34.00;30.20;;;;;;5071248;28;20840;-87
2022/06/03 12:54:29;;;;;;;3.03;2.83;;;34.20;30.30;;;;;;5051398;28;20953;-87
2022/06/03 12:56:59;;;;;;;3.20;3.00;;;34.20;29.20;;;;;;5095570;28;20790;-87
2022/06/03 12:59:32;;;;;;;2.70;2.50;;;34.00;29.90;;;;;;5074507;28;20431;-87
2022/06/03 13:02:05;;;;;;;3.20;3.00;;;34.10;29.90;;;;;;5073161;28;20452;-87
2022/06/03 13:04:43;;;;;;;3.60;3.30;;;34.10;29.80;;;;;;5070991;28;20447;-89
2022/06/03 13:07:36;;;;;;;6.00;3.40;;;33.70;29.70;;;;;;5092255;28;20463;-88
2022/06/03 13:10:54;;;;;;;3.20;3.00;;;33.50;29.60;;;;;;5073979;28;20455;-87
2022/06/03 13:14:07;;;;;;;3.00;2.80;;;33.10;30.00;;;;;;5058201;28;20464;-87
2022/06/03 13:16:49;;;;;;;3.20;2.97;;;33.10;30.50;;;;;;5035271;28;20452;-87
2022/06/03 13:19:56;;;;;;;2.97;2.77;;;33.10;30.60;;;;;;5041036;28;20451;-87
2022/06/03 13:22:51;;;;;;;4.37;3.30;;;33.30;30.90;;;;;;5062558;28;20447;-87
2022/06/03 13:25:39;;;;;;;3.10;2.77;;;33.20;30.20;;;;;;5088093;28;20459;-87
2022/06/03 13:28:32;;;;;;;3.23;3.03;;;33.40;31.30;;;;;;5072748;28;21161;-88
2022/06/03 13:31:13;;;;;;;3.40;3.10;;;33.60;31.00;;;;;;5032772;28;20491;-88
2022/06/03 13:34:14;;;;;;;3.27;3.00;;;33.60;30.90;;;;;;5087722;28;20550;-88
2022/06/03 13:36:48;;;;;;;3.00;2.80;;;33.70;31.40;;;;;;5071828;28;20951;-87
2022/06/03 13:39:53;;;;;;;3.50;3.30;;;33.60;30.90;;;;;;5067586;28;20436;-87
2022/06/03 13:45:19;;;;;;;3.30;2.93;;;33.60;31.10;;;;;;5080241;28;20439;-91
2022/06/03 13:47:53;;;;;;;4.07;3.67;;;33.40;30.60;;;;;;5059342;28;20439;-89
2022/06/03 13:50:32;;;;;;;3.43;3.13;;;33.20;31.80;;;;;;5070478;28;20502;-89
2022/06/03 13:53:02;;;;;;;3.70;3.40;;;33.10;31.50;;;;;;5073369;28;20470;-87
2022/06/03 13:55:33;;;;;;;3.20;3.00;;;33.10;31.60;;;;;;5070892;28;20809;-88
2022/06/03 13:58:07;;;;;;;3.80;3.17;;;32.80;31.70;;;;;;5092005;28;20462;-87
2022/06/03 14:00:38;;;;;;;3.50;3.30;;;32.80;32.20;;;;;;5069503;28;20464;-88
2022/06/03 14:03:12;;;;;;;3.60;3.30;;;32.80;31.80;;;;;;5076174;28;20443;-88
2022/06/03 14:05:42;;;;;;;5.00;3.37;;;32.80;31.80;;;;;;5071202;28;20449;-88
2022/06/03 14:08:17;;;;;;;4.87;3.70;;;32.70;32.70;;;;;;5089081;28;20527;-89
2022/06/03 14:10:48;;;;;;;3.90;3.70;;;32.70;32.10;;;;;;5072189;28;20482;-87
2022/06/03 14:13:35;;;;;;;4.27;3.70;;;33.00;32.00;;;;;;5088242;28;20464;-89
2022/06/03 14:16:07;;;;;;;3.53;3.23;;;33.10;31.90;;;;;;5073416;28;20455;-87
2022/06/03 14:18:58;;;;;;;3.50;3.23;;;33.20;32.20;;;;;;5034544;28;20979;-88
2022/06/03 14:21:33;;;;;;;3.13;2.93;;;33.20;32.20;;;;;;5069906;28;20464;-92
2022/06/03 14:24:04;;;;;;;3.90;3.03;;;33.10;32.40;;;;;;5059197;28;20442;-89
2022/06/03 14:26:40;;;;;;;3.97;3.50;;;33.10;32.00;;;;;;5038088;28;20459;-88
2022/06/03 14:29:15;;;;;;;4.33;4.03;;;32.90;32.00;;;;;;5052037;28;20480;-87
2022/06/03 14:31:47;;;;;;;3.70;3.40;;;32.90;32.00;;;;;;5051515;28;20480;-90
2022/06/03 14:34:19;;;;;;;4.40;3.20;;;32.90;32.80;;;;;;5071991;28;20468;-92
2022/06/03 14:36:48;;;;;;;4.00;3.70;;;32.90;33.80;;;;;;5037817;28;20536;-89
2022/06/03 14:39:20;;;;;;;3.27;2.97;;;32.90;32.90;;;;;;5090025;28;20455;-86
2022/06/03 14:41:50;;;;;;;3.90;3.60;;;32.90;33.30;;;;;;5055241;28;20478;-88